Time;durP1;ratioP1;P1;durP2;ratioP2;P2;SDS_P1;SDS_P2;PMS_P1;PMS_P2;Temp;Humidity;BMP_temperature;BMP_pressure;BME280_temperature;BME280_humidity;BME280_pressure;Samples;Min_cycle;Max_cycle;Signal;HPM_P1;HPM_P2
2022/07/17 00:02:03;;;;;;;1.50;0.70;;;16.10;59.00;;;;;;5038073;28;20075;-67
2022/07/17 00:04:29;;;;;;;1.85;0.80;;;16.10;59.30;;;;;;5039816;28;20029;-67
2022/07/17 00:06:54;;;;;;;1.25;0.70;;;16.10;59.40;;;;;;5042867;28;20028;-68
2022/07/17 00:09:20;;;;;;;2.15;0.80;;;16.10;59.40;;;;;;5037094;28;20021;-66
2022/07/17 00:11:45;;;;;;;2.47;0.80;;;16.10;59.60;;;;;;5040212;28;20475;-68
2022/07/17 00:14:11;;;;;;;1.58;0.80;;;16.10;59.70;;;;;;5041035;28;20044;-68
2022/07/17 00:16:37;;;;;;;3.03;0.98;;;16.00;59.60;;;;;;5042858;28;20029;-67
2022/07/17 00:19:02;;;;;;;1.40;0.68;;;16.00;59.70;;;;;;5041565;28;20029;-67
2022/07/17 00:21:28;;;;;;;1.90;0.80;;;16.00;59.70;;;;;;5040947;28;20029;-67
2022/07/17 00:23:54;;;;;;;1.80;0.80;;;16.00;59.80;;;;;;5043178;28;20033;-68
2022/07/17 00:26:19;;;;;;;2.60;0.68;;;16.00;60.00;;;;;;5043323;28;20487;-68
2022/07/17 00:28:45;;;;;;;1.65;0.80;;;16.00;59.90;;;;;;5042683;28;20021;-67
2022/07/17 00:31:11;;;;;;;1.38;0.90;;;16.00;59.90;;;;;;5040120;28;20032;-67
2022/07/17 00:33:36;;;;;;;2.25;0.80;;;16.00;59.90;;;;;;5043973;28;20017;-67
2022/07/17 00:36:02;;;;;;;3.20;0.90;;;16.00;60.00;;;;;;5040254;28;20025;-67
2022/07/17 00:38:28;;;;;;;3.67;0.93;;;16.00;60.00;;;;;;5043320;28;20033;-67
2022/07/17 00:40:58;;;;;;;1.60;0.70;;;15.90;60.20;;;;;;5039567;28;20016;-67
2022/07/17 00:43:24;;;;;;;2.47;0.77;;;15.90;60.80;;;;;;5042382;28;20064;-66
2022/07/17 00:46:00;;;;;;;2.85;0.95;;;15.90;60.30;;;;;;5042087;28;20040;-66
2022/07/17 00:48:27;;;;;;;2.47;0.88;;;16.00;60.40;;;;;;5041184;28;20032;-66
2022/07/17 00:50:53;;;;;;;1.75;1.00;;;16.00;60.30;;;;;;5041405;28;20032;-66
2022/07/17 00:53:18;;;;;;;1.85;0.85;;;15.90;60.30;;;;;;5040168;28;20025;-66
2022/07/17 00:55:49;;;;;;;3.80;0.98;;;15.90;60.30;;;;;;5040712;28;20143;-66
2022/07/17 00:58:23;;;;;;;1.60;0.77;;;15.90;60.40;;;;;;5039487;28;20057;-66
2022/07/17 01:00:50;;;;;;;2.55;0.60;;;15.90;60.50;;;;;;5042824;28;20179;-66
2022/07/17 01:03:17;;;;;;;1.90;0.82;;;15.90;60.50;;;;;;5041343;28;20029;-66
2022/07/17 01:05:44;;;;;;;1.95;0.73;;;15.90;60.60;;;;;;5041573;28;20017;-66
2022/07/17 01:08:09;;;;;;;2.88;0.98;;;15.80;60.60;;;;;;5041970;28;20109;-66
2022/07/17 01:10:35;;;;;;;2.78;0.90;;;15.80;60.60;;;;;;5039592;28;20546;-66
2022/07/17 01:13:02;;;;;;;1.95;0.75;;;15.80;60.70;;;;;;5040427;28;20084;-66
2022/07/17 01:15:28;;;;;;;1.77;1.00;;;15.80;60.70;;;;;;5040235;28;20575;-66
2022/07/17 01:17:54;;;;;;;1.30;0.80;;;15.80;60.70;;;;;;5042505;28;20111;-67
2022/07/17 01:20:20;;;;;;;1.65;0.70;;;15.80;60.70;;;;;;5042413;28;20117;-67
2022/07/17 01:22:49;;;;;;;2.10;0.80;;;15.80;60.70;;;;;;5041409;28;20092;-66
2022/07/17 01:25:20;;;;;;;2.00;0.90;;;15.70;60.60;;;;;;5038933;28;20025;-67
2022/07/17 01:27:45;;;;;;;2.10;0.80;;;15.70;60.70;;;;;;5040220;28;20025;-66
2022/07/17 01:30:11;;;;;;;3.35;0.90;;;15.70;60.70;;;;;;5038660;28;20400;-67
2022/07/17 01:32:39;;;;;;;2.03;0.80;;;15.70;60.70;;;;;;5044056;28;20031;-67
2022/07/17 01:35:05;;;;;;;1.52;0.73;;;15.80;60.80;;;;;;5041525;28;20104;-66
2022/07/17 01:37:31;;;;;;;2.10;0.80;;;15.70;60.70;;;;;;5040057;28;20056;-65
2022/07/17 01:39:57;;;;;;;3.17;0.85;;;15.80;60.60;;;;;;5042286;28;20500;-66
2022/07/17 01:42:23;;;;;;;2.83;1.10;;;15.80;60.60;;;;;;5041805;28;20018;-66
2022/07/17 01:44:50;;;;;;;3.20;0.90;;;15.70;60.70;;;;;;5039911;28;20029;-67
2022/07/17 01:47:17;;;;;;;1.05;0.90;;;15.60;60.90;;;;;;5039282;28;20025;-66
2022/07/17 01:49:48;;;;;;;1.90;0.80;;;15.60;61.00;;;;;;5038928;28;20021;-65
2022/07/17 01:52:14;;;;;;;1.85;1.00;;;15.60;61.00;;;;;;5041126;28;20029;-66
2022/07/17 01:54:41;;;;;;;1.98;0.90;;;15.60;60.90;;;;;;5043450;28;20025;-65
2022/07/17 01:57:07;;;;;;;2.75;0.80;;;15.70;60.90;;;;;;5041232;28;20017;-66
2022/07/17 01:59:32;;;;;;;1.75;0.90;;;15.60;60.80;;;;;;5039420;28;20036;-65
2022/07/17 02:01:58;;;;;;;4.13;1.10;;;15.50;61.20;;;;;;5042346;28;20029;-65
2022/07/17 02:04:23;;;;;;;1.85;1.00;;;15.60;61.20;;;;;;5041742;28;20049;-65
2022/07/17 02:06:49;;;;;;;3.28;0.90;;;15.50;61.10;;;;;;5041458;28;20116;-65
2022/07/17 02:09:14;;;;;;;2.28;0.90;;;15.60;61.20;;;;;;5040113;28;20021;-66
2022/07/17 02:11:40;;;;;;;3.05;1.00;;;15.50;61.10;;;;;;5036997;28;20025;-65
2022/07/17 02:14:06;;;;;;;2.15;0.88;;;15.60;61.20;;;;;;5040909;28;20032;-64
2022/07/17 02:16:31;;;;;;;3.15;1.30;;;15.60;61.10;;;;;;5038532;28;20029;-66
2022/07/17 02:18:57;;;;;;;1.88;1.10;;;15.60;61.10;;;;;;5040460;28;20432;-66
2022/07/17 02:21:22;;;;;;;2.63;0.95;;;15.40;61.40;;;;;;5040795;28;20033;-67
2022/07/17 02:23:48;;;;;;;3.63;1.17;;;15.40;61.60;;;;;;5039742;28;20017;-66
2022/07/17 02:26:13;;;;;;;1.92;1.00;;;15.40;61.60;;;;;;5038327;28;20081;-67
2022/07/17 02:28:39;;;;;;;1.13;0.80;;;15.40;61.40;;;;;;5039105;28;20108;-66
2022/07/17 02:31:04;;;;;;;2.67;1.08;;;15.40;61.40;;;;;;5041985;28;20110;-65
2022/07/17 02:33:30;;;;;;;3.50;1.00;;;15.50;61.40;;;;;;5040927;28;20202;-66
2022/07/17 02:35:56;;;;;;;2.40;1.13;;;15.40;61.40;;;;;;5040313;28;20185;-66
2022/07/17 02:38:21;;;;;;;1.35;0.90;;;15.40;61.30;;;;;;5038849;28;20029;-68
2022/07/17 02:40:47;;;;;;;2.13;1.10;;;15.50;61.40;;;;;;5042335;28;20483;-66
2022/07/17 02:43:12;;;;;;;3.33;0.85;;;15.40;61.30;;;;;;5039642;28;20028;-66
2022/07/17 02:45:38;;;;;;;3.25;1.08;;;15.40;61.40;;;;;;5037683;28;20640;-66
2022/07/17 02:48:04;;;;;;;1.45;0.98;;;15.50;61.50;;;;;;5038526;28;20018;-65
2022/07/17 02:50:29;;;;;;;3.28;1.00;;;15.40;61.50;;;;;;5039796;28;20032;-66
2022/07/17 02:52:55;;;;;;;2.15;0.93;;;15.40;61.50;;;;;;5039507;28;20021;-65
2022/07/17 02:55:21;;;;;;;2.00;0.95;;;15.40;61.50;;;;;;5038925;28;20029;-65
2022/07/17 02:57:47;;;;;;;1.63;1.00;;;15.40;61.50;;;;;;5040342;28;20076;-66
2022/07/17 03:00:15;;;;;;;1.40;0.82;;;15.40;61.60;;;;;;5040595;28;20017;-66
2022/07/17 03:02:42;;;;;;;1.35;0.98;;;15.30;61.60;;;;;;5037130;28;20032;-66
2022/07/17 03:05:08;;;;;;;1.73;0.80;;;15.30;61.70;;;;;;5039118;28;20024;-66
2022/07/17 03:07:33;;;;;;;1.50;1.20;;;15.30;61.70;;;;;;5042095;28;20087;-66
2022/07/17 03:09:59;;;;;;;1.60;0.80;;;15.30;61.70;;;;;;5037541;28;20440;-66
2022/07/17 03:12:24;;;;;;;1.10;0.90;;;15.30;61.60;;;;;;5038212;28;20028;-65
2022/07/17 03:14:50;;;;;;;3.35;0.90;;;15.30;61.60;;;;;;5035694;28;20049;-65
2022/07/17 03:17:15;;;;;;;2.33;0.90;;;15.20;61.60;;;;;;5038581;28;20091;-66
2022/07/17 03:19:41;;;;;;;2.60;1.00;;;15.20;61.70;;;;;;5039507;28;20025;-65
2022/07/17 03:22:07;;;;;;;1.50;0.90;;;15.20;61.70;;;;;;5039506;28;20025;-64
2022/07/17 03:24:32;;;;;;;1.15;0.80;;;15.20;61.80;;;;;;5038589;28;20104;-65
2022/07/17 03:26:58;;;;;;;2.83;1.00;;;15.20;61.80;;;;;;5039166;28;20036;-65
2022/07/17 03:29:24;;;;;;;2.75;1.10;;;15.20;61.80;;;;;;5038563;28;20439;-65
2022/07/17 03:31:50;;;;;;;2.88;0.98;;;15.20;61.80;;;;;;5039049;28;20045;-66
2022/07/17 03:34:16;;;;;;;1.58;0.90;;;15.20;61.90;;;;;;5037005;28;20151;-66
2022/07/17 03:36:42;;;;;;;1.13;0.90;;;15.10;62.00;;;;;;5037919;28;20116;-65
2022/07/17 03:39:08;;;;;;;2.00;0.90;;;15.10;62.20;;;;;;5038397;28;20028;-65
2022/07/17 03:41:33;;;;;;;1.98;0.82;;;15.00;62.20;;;;;;5041115;28;20025;-66
2022/07/17 03:43:59;;;;;;;2.50;0.90;;;15.00;62.30;;;;;;5038544;28;20073;-67
2022/07/17 03:46:25;;;;;;;2.30;0.90;;;14.90;62.50;;;;;;5036154;28;20029;-66
2022/07/17 03:48:50;;;;;;;2.72;1.13;;;14.80;62.80;;;;;;5038929;28;20461;-66
2022/07/17 03:51:16;;;;;;;3.42;1.60;;;14.80;63.20;;;;;;5037253;28;20016;-67
2022/07/17 03:53:42;;;;;;;2.55;1.30;;;14.70;63.40;;;;;;5039181;28;20029;-66
2022/07/17 03:56:07;;;;;;;3.28;1.17;;;14.70;63.50;;;;;;5039328;28;20057;-66
2022/07/17 03:58:33;;;;;;;5.18;1.20;;;14.70;63.50;;;;;;5036084;28;20411;-67
2022/07/17 04:00:59;;;;;;;4.25;1.23;;;14.70;64.20;;;;;;5037312;28;20485;-67
2022/07/17 04:03:25;;;;;;;4.65;1.40;;;14.70;63.70;;;;;;5036887;28;20028;-67
2022/07/17 04:05:51;;;;;;;3.00;1.25;;;14.70;63.70;;;;;;5036287;28;20041;-67
2022/07/17 04:08:18;;;;;;;2.88;1.20;;;14.70;64.30;;;;;;5039511;28;20096;-67
2022/07/17 04:10:44;;;;;;;3.47;1.20;;;14.70;63.70;;;;;;5039704;28;20386;-66
2022/07/17 04:13:09;;;;;;;2.95;1.30;;;14.80;63.60;;;;;;5038185;28;20025;-66
2022/07/17 04:15:52;;;;;;;3.45;1.08;;;14.90;63.30;;;;;;5039274;28;20092;-66
2022/07/17 04:18:20;;;;;;;3.00;1.10;;;15.00;63.00;;;;;;5034476;28;20021;-66
2022/07/17 04:20:46;;;;;;;2.15;0.90;;;15.10;62.60;;;;;;5044228;28;20025;-65
2022/07/17 04:23:13;;;;;;;2.05;0.80;;;15.20;62.30;;;;;;5038339;28;20483;-66
2022/07/17 04:25:39;;;;;;;2.35;0.70;;;15.20;62.20;;;;;;5029389;28;20045;-66
2022/07/17 04:28:04;;;;;;;1.98;1.10;;;15.30;62.10;;;;;;5033447;28;20088;-66
2022/07/17 04:30:30;;;;;;;1.30;0.90;;;15.30;62.10;;;;;;5047591;28;20037;-66
2022/07/17 04:32:55;;;;;;;1.35;0.93;;;15.30;62.20;;;;;;5040801;28;20025;-66
2022/07/17 04:35:21;;;;;;;1.08;0.90;;;15.20;62.20;;;;;;5029215;28;20439;-67
2022/07/17 04:37:46;;;;;;;2.17;1.17;;;15.20;62.30;;;;;;5033583;28;20017;-66
2022/07/17 04:40:12;;;;;;;1.48;1.00;;;15.20;62.40;;;;;;5038936;28;20449;-67
2022/07/17 04:42:37;;;;;;;1.98;0.98;;;15.20;62.50;;;;;;5045030;28;20018;-66
2022/07/17 04:45:04;;;;;;;3.15;0.98;;;15.20;62.40;;;;;;5038873;28;20086;-67
2022/07/17 04:47:30;;;;;;;2.20;0.95;;;15.30;62.30;;;;;;5041403;28;20119;-67
2022/07/17 04:49:57;;;;;;;0.93;0.75;;;15.40;62.30;;;;;;5048381;28;20104;-67
2022/07/17 04:52:22;;;;;;;2.58;1.00;;;15.40;62.20;;;;;;5044042;28;20173;-67
2022/07/17 04:54:48;;;;;;;0.85;0.70;;;15.40;62.10;;;;;;5034670;28;20100;-67
2022/07/17 04:57:14;;;;;;;2.83;1.02;;;15.40;62.20;;;;;;5038975;28;20025;-67
2022/07/17 04:59:39;;;;;;;1.40;0.88;;;15.50;62.10;;;;;;5031847;28;20446;-66
2022/07/17 05:02:05;;;;;;;1.92;0.90;;;15.60;62.00;;;;;;5031937;28;20040;-66
2022/07/17 05:04:30;;;;;;;1.40;0.80;;;15.60;61.90;;;;;;5044200;28;20091;-66
2022/07/17 05:06:56;;;;;;;1.80;0.90;;;15.70;61.90;;;;;;5046641;28;20115;-67
2022/07/17 05:09:22;;;;;;;3.58;1.00;;;15.90;61.50;;;;;;5046304;28;20165;-67
2022/07/17 05:11:47;;;;;;;2.70;1.00;;;15.90;61.30;;;;;;5051974;28;20025;-66
2022/07/17 05:14:13;;;;;;;3.17;1.00;;;15.90;61.50;;;;;;5036018;28;20029;-67
2022/07/17 05:16:39;;;;;;;2.63;1.20;;;15.90;61.50;;;;;;5033738;28;20052;-67
2022/07/17 05:19:04;;;;;;;1.95;0.90;;;16.20;61.00;;;;;;5037146;28;20033;-67
2022/07/17 05:21:30;;;;;;;5.18;1.40;;;16.40;60.70;;;;;;5032401;28;20029;-67
2022/07/17 05:23:55;;;;;;;2.30;1.00;;;17.00;59.70;;;;;;5043773;28;20056;-67
2022/07/17 05:26:21;;;;;;;4.30;1.20;;;17.80;58.10;;;;;;5044425;28;20041;-67
2022/07/17 05:28:47;;;;;;;3.45;0.88;;;18.60;56.40;;;;;;5049874;28;20416;-66
2022/07/17 05:31:12;;;;;;;2.30;1.13;;;19.20;54.90;;;;;;5035204;28;20039;-67
2022/07/17 05:33:38;;;;;;;3.33;1.10;;;19.40;53.80;;;;;;5038304;28;20048;-67
2022/07/17 05:36:03;;;;;;;2.00;0.90;;;19.70;53.10;;;;;;5037790;28;20584;-67
2022/07/17 05:38:29;;;;;;;2.65;1.10;;;20.10;52.60;;;;;;5047103;28;20033;-66
2022/07/17 05:40:54;;;;;;;3.65;1.10;;;20.50;51.80;;;;;;5049236;28;20048;-67
2022/07/17 05:43:20;;;;;;;3.70;1.38;;;20.70;51.30;;;;;;5044438;28;20546;-66
2022/07/17 05:45:45;;;;;;;3.15;1.20;;;20.90;50.90;;;;;;5044944;28;20386;-66
2022/07/17 05:48:11;;;;;;;4.07;1.08;;;20.90;50.40;;;;;;5044838;28;20453;-66
2022/07/17 05:50:37;;;;;;;4.10;1.08;;;21.10;50.40;;;;;;5037445;28;20029;-65
2022/07/17 05:53:02;;;;;;;2.70;0.95;;;21.40;49.80;;;;;;5049228;28;20113;-66
2022/07/17 05:55:28;;;;;;;4.40;1.20;;;21.70;49.10;;;;;;5031729;28;20026;-66
2022/07/17 05:57:53;;;;;;;3.67;1.20;;;21.50;48.90;;;;;;5040767;28;20025;-66
2022/07/17 06:00:20;;;;;;;2.45;1.10;;;21.40;48.90;;;;;;5042891;28;20048;-66
2022/07/17 06:02:45;;;;;;;2.55;0.90;;;21.70;49.00;;;;;;5042039;28;20144;-66
2022/07/17 06:05:11;;;;;;;2.28;1.00;;;22.20;48.40;;;;;;5039254;28;20107;-67
2022/07/17 06:07:37;;;;;;;2.22;1.10;;;22.40;47.60;;;;;;5046642;28;20025;-66
2022/07/17 06:10:06;;;;;;;3.67;1.27;;;22.30;47.30;;;;;;5041452;28;20026;-66
2022/07/17 06:12:32;;;;;;;3.20;1.30;;;22.10;47.40;;;;;;5042010;28;20564;-67
2022/07/17 06:14:57;;;;;;;3.17;1.00;;;21.70;48.20;;;;;;5041005;28;20101;-66
2022/07/17 06:17:23;;;;;;;1.25;0.65;;;22.00;47.80;;;;;;5041020;28;20048;-67
2022/07/17 06:19:51;;;;;;;2.55;1.00;;;22.30;47.50;;;;;;5043702;28;20021;-67
2022/07/17 06:22:20;;;;;;;2.40;0.80;;;22.10;47.50;;;;;;5039418;28;20163;-66
2022/07/17 06:24:46;;;;;;;2.53;0.85;;;22.30;47.50;;;;;;5037691;28;20026;-66
2022/07/17 06:27:12;;;;;;;2.72;1.00;;;22.40;47.30;;;;;;5040040;28;20021;-66
2022/07/17 06:29:38;;;;;;;2.55;0.88;;;22.40;47.50;;;;;;5037789;28;20093;-66
2022/07/17 06:32:04;;;;;;;2.15;0.90;;;22.60;47.60;;;;;;5044149;28;20462;-66
2022/07/17 06:34:30;;;;;;;1.95;0.77;;;22.60;47.70;;;;;;5035351;28;20033;-66
2022/07/17 06:36:55;;;;;;;2.28;1.00;;;22.70;47.70;;;;;;5043197;28;20369;-66
2022/07/17 06:39:21;;;;;;;2.88;1.05;;;22.40;48.30;;;;;;5035456;28;20063;-66
2022/07/17 06:41:46;;;;;;;1.73;0.80;;;22.00;48.20;;;;;;5039074;28;20041;-65
2022/07/17 06:44:12;;;;;;;3.08;1.00;;;21.50;49.00;;;;;;5041646;28;20508;-66
2022/07/17 06:46:37;;;;;;;2.85;1.00;;;21.30;49.60;;;;;;5040125;28;20033;-66
2022/07/17 06:49:03;;;;;;;2.80;0.95;;;21.10;49.80;;;;;;5038023;28;20553;-66
2022/07/17 06:51:29;;;;;;;3.25;1.00;;;21.00;50.30;;;;;;5037533;28;20133;-67
2022/07/17 06:53:54;;;;;;;2.83;0.80;;;21.00;50.40;;;;;;5039100;28;20029;-67
2022/07/17 06:56:20;;;;;;;4.32;1.10;;;21.00;50.50;;;;;;5038551;28;20032;-67
2022/07/17 06:58:46;;;;;;;2.05;0.90;;;21.00;50.00;;;;;;5039728;28;20082;-67
2022/07/17 07:01:12;;;;;;;4.57;1.35;;;21.00;50.30;;;;;;5038444;28;20110;-66
2022/07/17 07:03:37;;;;;;;2.38;0.80;;;21.10;49.70;;;;;;5038293;28;20032;-67
2022/07/17 07:06:03;;;;;;;2.55;1.00;;;21.20;49.40;;;;;;5041696;28;20029;-67
2022/07/17 07:08:28;;;;;;;2.20;1.00;;;21.20;49.30;;;;;;5039417;28;20047;-66
2022/07/17 07:10:54;;;;;;;3.00;0.95;;;21.10;49.30;;;;;;5038479;28;20032;-66
2022/07/17 07:13:19;;;;;;;2.55;0.90;;;21.20;49.40;;;;;;5035876;28;20025;-66
2022/07/17 07:15:45;;;;;;;1.92;0.77;;;21.40;49.40;;;;;;5040059;28;20033;-66
2022/07/17 07:18:11;;;;;;;1.23;0.68;;;21.60;49.10;;;;;;5036932;28;20108;-66
2022/07/17 07:20:36;;;;;;;1.55;0.70;;;21.80;48.80;;;;;;5038675;28;20747;-66
2022/07/17 07:23:02;;;;;;;2.75;1.00;;;21.80;49.00;;;;;;5041128;28;20040;-66
2022/07/17 07:25:28;;;;;;;2.25;0.80;;;21.90;48.30;;;;;;5046758;28;20032;-66
2022/07/17 07:27:53;;;;;;;3.72;1.08;;;21.80;48.10;;;;;;5045242;28;20483;-67
2022/07/17 07:30:19;;;;;;;2.25;0.80;;;21.80;48.00;;;;;;5043406;28;20068;-67
2022/07/17 07:32:44;;;;;;;2.67;0.90;;;21.70;48.20;;;;;;5048115;28;20063;-67
2022/07/17 07:35:10;;;;;;;3.67;0.80;;;21.80;48.30;;;;;;5047868;28;20373;-66
2022/07/17 07:37:37;;;;;;;1.10;0.60;;;22.00;48.20;;;;;;5046710;28;20104;-67
2022/07/17 07:40:04;;;;;;;1.67;0.57;;;22.20;47.90;;;;;;5046127;28;20500;-66
2022/07/17 07:42:30;;;;;;;2.17;1.00;;;22.50;47.50;;;;;;5045162;28;20029;-66
2022/07/17 07:44:56;;;;;;;3.55;1.13;;;22.60;46.90;;;;;;5047820;28;20048;-66
2022/07/17 07:47:21;;;;;;;3.42;1.00;;;22.50;46.60;;;;;;5043808;28;20029;-66
2022/07/17 07:49:47;;;;;;;3.72;1.00;;;22.30;46.60;;;;;;5046644;28;20378;-66
2022/07/17 07:52:12;;;;;;;1.98;0.70;;;22.50;46.90;;;;;;5041302;28;20049;-66
2022/07/17 07:54:38;;;;;;;2.08;0.80;;;22.50;46.70;;;;;;5046905;28;20021;-67
2022/07/17 07:57:04;;;;;;;1.92;0.82;;;22.80;46.70;;;;;;5042253;28;20680;-66
2022/07/17 07:59:32;;;;;;;1.55;0.80;;;22.90;46.10;;;;;;5046612;28;20029;-66
2022/07/17 08:01:58;;;;;;;1.95;0.80;;;22.80;46.10;;;;;;5044008;28;20395;-66
2022/07/17 08:04:24;;;;;;;1.75;0.80;;;22.90;46.10;;;;;;5041146;28;20029;-66
2022/07/17 08:06:49;;;;;;;3.83;1.05;;;23.00;46.00;;;;;;5041516;28;20079;-66
2022/07/17 08:09:15;;;;;;;2.95;0.95;;;23.00;46.40;;;;;;5043774;28;20029;-66
2022/07/17 08:11:40;;;;;;;2.10;0.80;;;23.00;45.80;;;;;;5045551;28;20415;-66
2022/07/17 08:14:06;;;;;;;2.35;0.80;;;23.20;45.80;;;;;;5044070;28;20021;-66
2022/07/17 08:16:31;;;;;;;1.63;0.73;;;23.30;45.70;;;;;;5045026;28;20083;-67
2022/07/17 08:18:57;;;;;;;2.15;0.80;;;23.40;45.40;;;;;;5047110;28;20036;-66
2022/07/17 08:21:23;;;;;;;1.98;0.73;;;23.30;44.70;;;;;;5046785;28;20052;-66
2022/07/17 08:23:49;;;;;;;2.42;0.70;;;23.30;44.50;;;;;;5043577;28;20049;-66
2022/07/17 08:26:14;;;;;;;1.33;0.57;;;23.50;44.30;;;;;;5045870;28;20029;-66
2022/07/17 08:28:40;;;;;;;2.15;0.70;;;23.60;43.90;;;;;;5045153;28;20115;-67
2022/07/17 08:31:05;;;;;;;1.65;0.80;;;23.50;43.70;;;;;;5041640;28;20037;-67
2022/07/17 08:33:31;;;;;;;2.13;0.93;;;23.60;43.00;;;;;;5043705;28;20574;-66
2022/07/17 08:35:56;;;;;;;1.95;0.88;;;23.50;43.00;;;;;;5049167;28;20026;-66
2022/07/17 08:38:22;;;;;;;1.70;0.88;;;23.60;42.80;;;;;;5049309;28;20033;-66
2022/07/17 08:40:49;;;;;;;1.10;0.65;;;23.60;42.50;;;;;;5050271;28;20040;-66
2022/07/17 08:43:15;;;;;;;2.30;0.77;;;23.60;42.80;;;;;;5048518;28;20025;-66
2022/07/17 08:45:43;;;;;;;1.40;0.75;;;23.50;42.60;;;;;;5047748;28;20719;-66
2022/07/17 08:48:13;;;;;;;2.65;0.80;;;23.60;42.40;;;;;;5049576;28;20103;-66
2022/07/17 08:50:39;;;;;;;1.60;0.70;;;23.80;42.30;;;;;;5049012;28;20369;-66
2022/07/17 08:53:04;;;;;;;2.35;0.75;;;24.00;42.10;;;;;;5044480;28;20025;-66
2022/07/17 08:55:33;;;;;;;2.08;0.80;;;24.20;41.90;;;;;;5044777;28;20036;-66
2022/07/17 08:57:59;;;;;;;2.65;0.77;;;24.40;41.50;;;;;;5047376;28;20442;-66
2022/07/17 09:00:26;;;;;;;3.35;1.08;;;24.30;41.30;;;;;;5048129;28;20091;-66
2022/07/17 09:03:07;;;;;;;2.38;0.90;;;24.20;41.00;;;;;;5048278;28;20654;-66
2022/07/17 09:05:38;;;;;;;2.33;0.85;;;23.90;41.40;;;;;;5045464;28;21371;-67
2022/07/17 09:08:05;;;;;;;2.77;0.90;;;23.70;41.90;;;;;;5041807;28;20080;-66
2022/07/17 09:10:35;;;;;;;1.00;0.60;;;23.70;42.30;;;;;;5046670;28;20060;-66
2022/07/17 09:13:12;;;;;;;1.85;0.90;;;23.80;42.40;;;;;;5043198;28;20051;-66
2022/07/17 09:15:37;;;;;;;1.33;0.82;;;24.00;42.10;;;;;;5045421;28;20103;-66
2022/07/17 09:18:03;;;;;;;3.30;1.00;;;24.00;41.70;;;;;;5043551;28;20076;-66
2022/07/17 09:20:28;;;;;;;3.00;0.90;;;23.90;41.90;;;;;;5043032;28;20017;-66
2022/07/17 09:23:04;;;;;;;2.25;0.95;;;24.00;42.00;;;;;;5046784;28;20037;-66
2022/07/17 09:25:50;;;;;;;2.25;0.80;;;24.20;41.90;;;;;;5045164;28;20060;-66
2022/07/17 09:28:17;;;;;;;2.20;0.80;;;24.50;41.70;;;;;;5044774;28;20027;-66
2022/07/17 09:30:45;;;;;;;2.78;0.70;;;24.60;41.40;;;;;;5045969;28;20598;-66
2022/07/17 09:33:18;;;;;;;2.85;0.70;;;24.70;41.20;;;;;;5044766;28;20012;-66
2022/07/17 09:35:49;;;;;;;1.88;0.80;;;24.80;40.90;;;;;;5048034;28;20116;-66
2022/07/17 09:38:32;;;;;;;2.03;0.68;;;24.80;40.80;;;;;;5039781;28;20021;-65
2022/07/17 09:41:17;;;;;;;3.28;0.90;;;24.80;40.90;;;;;;5046101;28;20021;-66
2022/07/17 09:43:49;;;;;;;2.83;1.02;;;24.80;40.90;;;;;;5048093;28;20024;-65
2022/07/17 09:46:20;;;;;;;3.08;0.93;;;24.60;40.20;;;;;;5047070;28;20099;-66
2022/07/17 09:48:48;;;;;;;;;;;24.30;40.50;;;;;;5049544;28;20095;-66
2022/07/17 09:51:20;;;;;;;3.50;0.80;;;24.20;41.00;;;;;;5049225;28;19915;-65
2022/07/17 09:53:47;;;;;;;2.42;1.00;;;24.50;41.20;;;;;;5047867;28;20044;-65
2022/07/17 09:56:16;;;;;;;4.35;1.23;;;24.60;40.90;;;;;;5046069;28;20603;-66
2022/07/17 09:58:45;;;;;;;2.47;0.90;;;24.50;40.40;;;;;;5048979;28;20049;-66
2022/07/17 10:01:11;;;;;;;2.67;0.82;;;24.60;40.70;;;;;;5049610;28;20022;-66
2022/07/17 10:03:38;;;;;;;4.43;0.90;;;24.80;40.80;;;;;;5048353;28;20112;-66
2022/07/17 10:06:03;;;;;;;2.50;0.98;;;25.00;40.40;;;;;;5049147;28;20447;-66
2022/07/17 10:08:31;;;;;;;2.90;0.93;;;24.90;40.00;;;;;;5049901;28;20032;-66
2022/07/17 10:10:57;;;;;;;2.63;0.80;;;25.10;40.10;;;;;;5049530;28;20017;-66
2022/07/17 10:13:22;;;;;;;1.27;0.70;;;25.30;39.70;;;;;;5048438;28;20036;-66
2022/07/17 10:15:49;;;;;;;1.67;0.70;;;25.50;39.60;;;;;;5049128;28;20397;-66
2022/07/17 10:18:14;;;;;;;2.63;1.05;;;25.50;39.20;;;;;;5049213;28;20013;-66
2022/07/17 10:20:40;;;;;;;1.75;0.80;;;25.30;38.80;;;;;;5043858;28;20635;-66
2022/07/17 10:23:13;;;;;;;1.83;0.85;;;25.10;39.20;;;;;;5047549;28;20052;-66
2022/07/17 10:25:39;;;;;;;2.90;0.80;;;25.30;39.40;;;;;;5045356;28;20036;-66
2022/07/17 10:28:04;;;;;;;0.63;0.52;;;25.40;39.20;;;;;;5039785;28;20071;-66
2022/07/17 10:30:31;;;;;;;2.47;0.82;;;25.60;39.00;;;;;;5044681;28;20459;-66
2022/07/17 10:32:58;;;;;;;2.88;1.17;;;25.40;38.40;;;;;;5044808;28;20049;-66
2022/07/17 10:35:25;;;;;;;4.60;0.93;;;25.20;38.40;;;;;;5049071;28;20017;-66
2022/07/17 10:37:51;;;;;;;4.05;1.02;;;25.00;39.00;;;;;;5048343;28;20059;-66
2022/07/17 10:40:19;;;;;;;4.00;1.40;;;25.10;39.60;;;;;;5048379;28;20052;-66
2022/07/17 10:42:50;;;;;;;2.72;0.88;;;25.20;39.40;;;;;;5043794;28;20026;-66
2022/07/17 10:45:25;;;;;;;6.20;1.33;;;25.30;39.50;;;;;;5048114;28;20503;-67
2022/07/17 10:47:58;;;;;;;2.17;0.80;;;25.50;39.40;;;;;;5046988;28;20071;-66
2022/07/17 10:50:38;;;;;;;1.75;0.70;;;25.60;39.10;;;;;;5047038;28;20503;-66
2022/07/17 10:53:24;;;;;;;3.17;1.00;;;25.80;39.20;;;;;;5045057;28;20025;-66
2022/07/17 10:55:53;;;;;;;2.75;1.08;;;26.00;38.80;;;;;;5046259;28;20766;-66
2022/07/17 10:58:25;;;;;;;3.78;1.00;;;26.00;38.80;;;;;;5046110;28;20021;-65
2022/07/17 11:01:00;;;;;;;;;;;26.00;38.80;;;;;;5047399;28;20045;-66
2022/07/17 11:03:27;;;;;;;3.75;1.23;;;26.00;38.90;;;;;;5047286;28;20366;-66
2022/07/17 11:05:52;;;;;;;3.35;1.00;;;26.10;38.70;;;;;;5046809;28;20048;-65
2022/07/17 11:08:18;;;;;;;3.13;1.20;;;26.20;38.70;;;;;;5048161;28;20411;-66
2022/07/17 11:10:45;;;;;;;2.80;1.15;;;26.10;38.40;;;;;;5046869;28;20079;-66
2022/07/17 11:13:14;;;;;;;2.45;0.95;;;25.90;38.40;;;;;;5047973;28;20025;-66
2022/07/17 11:15:49;;;;;;;3.78;1.15;;;26.00;38.90;;;;;;5047983;28;20609;-66
2022/07/17 11:18:17;;;;;;;2.40;1.10;;;25.90;38.70;;;;;;5041136;28;20021;-66
2022/07/17 11:21:02;;;;;;;1.98;0.90;;;25.80;39.20;;;;;;5048139;28;20100;-66
2022/07/17 11:23:31;;;;;;;2.20;0.95;;;26.00;39.30;;;;;;5044480;28;20067;-66
2022/07/17 11:26:06;;;;;;;2.53;0.90;;;26.40;39.20;;;;;;5045512;28;20021;-66
2022/07/17 11:28:40;;;;;;;1.42;0.73;;;26.70;39.00;;;;;;5043493;28;20032;-66
2022/07/17 11:31:21;;;;;;;1.55;0.82;;;26.90;38.60;;;;;;5046113;28;20547;-66
2022/07/17 11:33:51;;;;;;;1.73;0.90;;;26.90;38.50;;;;;;5044289;28;20078;-66
2022/07/17 11:36:21;;;;;;;2.35;0.90;;;27.00;38.30;;;;;;5047130;28;20032;-66
2022/07/17 11:38:47;;;;;;;2.80;1.00;;;26.90;38.30;;;;;;5046212;28;20033;-66
2022/07/17 11:41:14;;;;;;;1.98;1.10;;;26.90;38.80;;;;;;5047467;28;20035;-67
2022/07/17 11:43:41;;;;;;;1.38;0.77;;;27.10;38.40;;;;;;5046826;28;20450;-66
2022/07/17 11:46:08;;;;;;;1.02;0.70;;;27.20;38.20;;;;;;5047391;28;20031;-66
2022/07/17 11:48:33;;;;;;;2.30;1.05;;;27.10;38.00;;;;;;5046751;28;20040;-66
2022/07/17 11:50:59;;;;;;;3.28;1.10;;;27.00;37.80;;;;;;5045299;28;20025;-66
2022/07/17 11:53:32;;;;;;;2.22;0.98;;;26.80;38.10;;;;;;5045164;28;20053;-66
2022/07/17 11:55:58;;;;;;;3.13;0.90;;;26.90;38.10;;;;;;5044917;28;20032;-66
2022/07/17 11:58:23;;;;;;;2.60;0.82;;;26.80;38.10;;;;;;5042620;28;20029;-66
2022/07/17 12:01:03;;;;;;;2.17;1.02;;;27.20;38.20;;;;;;5044927;28;20031;-66
2022/07/17 12:03:28;;;;;;;2.60;1.33;;;27.30;37.80;;;;;;5044528;28;20402;-66
2022/07/17 12:05:54;;;;;;;1.95;0.90;;;27.40;37.20;;;;;;5046305;28;20033;-66
2022/07/17 12:08:20;;;;;;;2.05;0.93;;;27.30;37.00;;;;;;5046853;28;20236;-66
2022/07/17 12:10:47;;;;;;;1.98;1.00;;;27.40;37.30;;;;;;5048943;28;20021;-66
2022/07/17 12:13:14;;;;;;;1.75;1.00;;;27.70;37.30;;;;;;5047725;28;20025;-65
2022/07/17 12:15:49;;;;;;;1.67;0.80;;;28.00;36.90;;;;;;5050328;28;20067;-66
2022/07/17 12:18:29;;;;;;;1.83;0.80;;;28.20;36.50;;;;;;5050810;28;20379;-66
2022/07/17 12:21:01;;;;;;;1.70;0.90;;;28.50;36.30;;;;;;5048512;28;20033;-66
2022/07/17 12:23:39;;;;;;;1.17;0.70;;;28.80;35.60;;;;;;5051485;28;20017;-66
2022/07/17 12:26:09;;;;;;;1.95;0.88;;;28.80;35.10;;;;;;5046800;28;20049;-66
2022/07/17 12:28:35;;;;;;;2.10;1.05;;;28.90;35.10;;;;;;5051210;28;20387;-66
2022/07/17 12:31:01;;;;;;;1.75;0.80;;;28.60;34.50;;;;;;5048175;28;20112;-66
2022/07/17 12:33:26;;;;;;;1.75;0.90;;;28.60;35.00;;;;;;5051130;28;20092;-66
2022/07/17 12:35:52;;;;;;;1.50;0.80;;;28.60;35.00;;;;;;5051350;28;20749;-66
2022/07/17 12:38:18;;;;;;;1.67;0.80;;;28.90;35.10;;;;;;5051088;28;20029;-66
2022/07/17 12:40:44;;;;;;;2.10;0.80;;;28.80;34.30;;;;;;5050929;28;20468;-66
2022/07/17 12:43:09;;;;;;;2.35;1.00;;;28.70;33.70;;;;;;5051086;28;20395;-66
2022/07/17 12:45:35;;;;;;;1.90;0.80;;;28.40;34.00;;;;;;5050985;28;20096;-65
2022/07/17 12:48:01;;;;;;;2.35;0.90;;;28.50;33.80;;;;;;5049475;28;20032;-66